sensor_id;sensor_type;location;lat;lon;timestamp;pressure;altitude;pressure_sealevel;temperature;humidity
74893;BME280;63446;56.272;43.922;2022-12-08T00:01:17;102453.34;;;-9.30;64.19
74893;BME280;63446;56.272;43.922;2022-12-08T00:03:43;102453.53;;;-9.33;64.11
74893;BME280;63446;56.272;43.922;2022-12-08T00:06:24;102456.09;;;-9.33;64.15
74893;BME280;63446;56.272;43.922;2022-12-08T00:09:22;102443.38;;;-9.35;64.09
74893;BME280;63446;56.272;43.922;2022-12-08T00:14:21;102447.19;;;-9.42;64.02
74893;BME280;63446;56.272;43.922;2022-12-08T00:16:47;102448.88;;;-9.41;64.14
74893;BME280;63446;56.272;43.922;2022-12-08T00:19:12;102445.53;;;-9.43;64.12
74893;BME280;63446;56.272;43.922;2022-12-08T00:21:38;102443.91;;;-9.44;64.04
74893;BME280;63446;56.272;43.922;2022-12-08T00:24:04;102438.84;;;-9.46;64.13
74893;BME280;63446;56.272;43.922;2022-12-08T00:26:30;102438.19;;;-9.49;64.19
74893;BME280;63446;56.272;43.922;2022-12-08T00:28:56;102440.03;;;-9.51;64.10
74893;BME280;63446;56.272;43.922;2022-12-08T00:31:21;102434.28;;;-9.55;64.13
74893;BME280;63446;56.272;43.922;2022-12-08T00:33:47;102437.75;;;-9.56;63.98
74893;BME280;63446;56.272;43.922;2022-12-08T00:36:13;102439.50;;;-9.56;64.11
74893;BME280;63446;56.272;43.922;2022-12-08T00:38:40;102431.16;;;-9.60;64.00
74893;BME280;63446;56.272;43.922;2022-12-08T00:41:10;102434.44;;;-9.58;64.04
74893;BME280;63446;56.272;43.922;2022-12-08T00:43:36;102420.00;;;-9.59;64.11
74893;BME280;63446;56.272;43.922;2022-12-08T00:46:03;102426.94;;;-9.61;64.10
74893;BME280;63446;56.272;43.922;2022-12-08T00:48:29;102432.97;;;-9.62;64.08
74893;BME280;63446;56.272;43.922;2022-12-08T00:50:55;102434.81;;;-9.64;64.11
74893;BME280;63446;56.272;43.922;2022-12-08T00:53:20;102428.13;;;-9.67;64.14
74893;BME280;63446;56.272;43.922;2022-12-08T00:55:46;102429.09;;;-9.69;64.05
74893;BME280;63446;56.272;43.922;2022-12-08T00:58:12;102436.88;;;-9.71;64.04
74893;BME280;63446;56.272;43.922;2022-12-08T01:00:41;102434.47;;;-9.74;64.04
74893;BME280;63446;56.272;43.922;2022-12-08T01:03:10;102445.47;;;-9.72;64.00
74893;BME280;63446;56.272;43.922;2022-12-08T01:05:38;102438.69;;;-9.73;64.01
74893;BME280;63446;56.272;43.922;2022-12-08T01:08:05;102431.19;;;-9.76;64.10
74893;BME280;63446;56.272;43.922;2022-12-08T01:10:30;102442.16;;;-9.74;64.00
74893;BME280;63446;56.272;43.922;2022-12-08T01:12:57;102431.19;;;-9.76;64.03
74893;BME280;63446;56.272;43.922;2022-12-08T01:15:23;102438.03;;;-9.76;64.10
74893;BME280;63446;56.272;43.922;2022-12-08T01:17:49;102445.63;;;-9.75;64.14
74893;BME280;63446;56.272;43.922;2022-12-08T01:20:15;102437.13;;;-9.75;64.05
74893;BME280;63446;56.272;43.922;2022-12-08T01:22:40;102436.38;;;-9.77;64.17
74893;BME280;63446;56.272;43.922;2022-12-08T01:25:06;102431.25;;;-9.77;64.13
74893;BME280;63446;56.272;43.922;2022-12-08T01:27:32;102427.16;;;-9.80;64.08
74893;BME280;63446;56.272;43.922;2022-12-08T01:29:58;102436.47;;;-9.79;64.06
74893;BME280;63446;56.272;43.922;2022-12-08T01:32:24;102437.41;;;-9.80;64.02
74893;BME280;63446;56.272;43.922;2022-12-08T01:34:50;102439.09;;;-9.80;64.04
74893;BME280;63446;56.272;43.922;2022-12-08T01:37:16;102429.78;;;-9.81;64.05
74893;BME280;63446;56.272;43.922;2022-12-08T01:39:42;102436.63;;;-9.82;63.93
74893;BME280;63446;56.272;43.922;2022-12-08T01:42:18;102428.31;;;-9.86;63.93
74893;BME280;63446;56.272;43.922;2022-12-08T01:44:52;102424.09;;;-9.87;63.94
74893;BME280;63446;56.272;43.922;2022-12-08T01:47:18;102426.94;;;-9.91;63.90
74893;BME280;63446;56.272;43.922;2022-12-08T01:49:44;102421.97;;;-9.94;63.92
74893;BME280;63446;56.272;43.922;2022-12-08T01:52:17;102420.56;;;-10.00;63.83
74893;BME280;63446;56.272;43.922;2022-12-08T01:54:48;102424.78;;;-9.99;63.95
74893;BME280;63446;56.272;43.922;2022-12-08T01:57:23;102411.25;;;-10.01;63.92
74893;BME280;63446;56.272;43.922;2022-12-08T01:59:53;102417.28;;;-10.02;64.05
74893;BME280;63446;56.272;43.922;2022-12-08T02:02:27;102422.22;;;-9.99;64.02
74893;BME280;63446;56.272;43.922;2022-12-08T02:04:55;102417.19;;;-10.00;64.05
74893;BME280;63446;56.272;43.922;2022-12-08T02:07:21;102419.00;;;-10.02;63.85
74893;BME280;63446;56.272;43.922;2022-12-08T02:09:49;102411.50;;;-10.05;63.84
74893;BME280;63446;56.272;43.922;2022-12-08T02:12:15;102414.13;;;-10.07;63.80
74893;BME280;63446;56.272;43.922;2022-12-08T02:15:01;102412.59;;;-10.10;63.77
74893;BME280;63446;56.272;43.922;2022-12-08T02:23:11;102427.34;;;-10.15;63.95
74893;BME280;63446;56.272;43.922;2022-12-08T02:26:01;102424.88;;;-10.16;63.69
74893;BME280;63446;56.272;43.922;2022-12-08T02:31:41;102423.38;;;-10.20;63.86
74893;BME280;63446;56.272;43.922;2022-12-08T02:37:16;102428.66;;;-10.23;63.71
74893;BME280;63446;56.272;43.922;2022-12-08T02:47:36;102411.97;;;-10.29;63.71
74893;BME280;63446;56.272;43.922;2022-12-08T02:50:03;102405.28;;;-10.31;63.62
74893;BME280;63446;56.272;43.922;2022-12-08T02:54:58;102408.75;;;-10.32;63.77
74893;BME280;63446;56.272;43.922;2022-12-08T03:00:18;102399.25;;;-10.30;63.74
74893;BME280;63446;56.272;43.922;2022-12-08T03:08:01;102404.38;;;-10.30;63.71
74893;BME280;63446;56.272;43.922;2022-12-08T03:10:38;102396.03;;;-10.34;63.62
74893;BME280;63446;56.272;43.922;2022-12-08T03:13:13;102386.00;;;-10.37;63.51
74893;BME280;63446;56.272;43.922;2022-12-08T03:15:42;102385.34;;;-10.41;63.53
74893;BME280;63446;56.272;43.922;2022-12-08T03:18:12;102386.31;;;-10.43;63.62
74893;BME280;63446;56.272;43.922;2022-12-08T03:20:41;102383.03;;;-10.45;63.60
74893;BME280;63446;56.272;43.922;2022-12-08T03:23:10;102384.94;;;-10.49;63.63
74893;BME280;63446;56.272;43.922;2022-12-08T03:25:42;102395.16;;;-10.49;63.66
74893;BME280;63446;56.272;43.922;2022-12-08T03:28:12;102384.16;;;-10.51;63.56
74893;BME280;63446;56.272;43.922;2022-12-08T03:30:40;102385.91;;;-10.51;63.61
74893;BME280;63446;56.272;43.922;2022-12-08T03:33:18;102387.63;;;-10.52;63.62
74893;BME280;63446;56.272;43.922;2022-12-08T03:35:46;102388.56;;;-10.53;63.59
74893;BME280;63446;56.272;43.922;2022-12-08T03:38:14;102379.22;;;-10.54;63.52
74893;BME280;63446;56.272;43.922;2022-12-08T03:40:41;102374.25;;;-10.57;63.43
74893;BME280;63446;56.272;43.922;2022-12-08T03:43:08;102391.16;;;-10.54;63.62
74893;BME280;63446;56.272;43.922;2022-12-08T03:45:33;102382.69;;;-10.55;63.52
74893;BME280;63446;56.272;43.922;2022-12-08T03:48:01;102377.56;;;-10.55;63.43
74893;BME280;63446;56.272;43.922;2022-12-08T03:50:28;102378.41;;;-10.54;63.51
74893;BME280;63446;56.272;43.922;2022-12-08T03:52:53;102381.03;;;-10.56;63.36
74893;BME280;63446;56.272;43.922;2022-12-08T03:55:19;102384.41;;;-10.55;63.64
74893;BME280;63446;56.272;43.922;2022-12-08T03:57:45;102376.81;;;-10.57;63.51
74893;BME280;63446;56.272;43.922;2022-12-08T04:00:14;102382.69;;;-10.55;63.53
74893;BME280;63446;56.272;43.922;2022-12-08T04:02:41;102374.25;;;-10.57;63.41
74893;BME280;63446;56.272;43.922;2022-12-08T04:05:07;102367.50;;;-10.58;63.44
74893;BME280;63446;56.272;43.922;2022-12-08T04:07:33;102371.72;;;-10.57;63.41
74893;BME280;63446;56.272;43.922;2022-12-08T04:09:59;102376.81;;;-10.57;63.43
74893;BME280;63446;56.272;43.922;2022-12-08T04:12:24;102376.81;;;-10.57;63.38
74893;BME280;63446;56.272;43.922;2022-12-08T04:14:50;102373.38;;;-10.56;63.35
74893;BME280;63446;56.272;43.922;2022-12-08T04:17:16;102371.66;;;-10.55;63.42
74893;BME280;63446;56.272;43.922;2022-12-08T04:19:42;102375.13;;;-10.56;63.47
74893;BME280;63446;56.272;43.922;2022-12-08T04:22:08;102370.00;;;-10.56;63.53
74893;BME280;63446;56.272;43.922;2022-12-08T04:24:34;102369.16;;;-10.57;63.54
74893;BME280;63446;56.272;43.922;2022-12-08T04:26:59;102370.00;;;-10.56;63.30
74893;BME280;63446;56.272;43.922;2022-12-08T04:29:25;102364.03;;;-10.57;63.47
74893;BME280;63446;56.272;43.922;2022-12-08T04:31:51;102359.84;;;-10.58;63.46
74893;BME280;63446;56.272;43.922;2022-12-08T04:34:17;102367.50;;;-10.58;63.41
74893;BME280;63446;56.272;43.922;2022-12-08T04:36:43;102362.56;;;-10.61;63.54
74893;BME280;63446;56.272;43.922;2022-12-08T04:39:08;102357.63;;;-10.64;63.23
74893;BME280;63446;56.272;43.922;2022-12-08T04:41:35;102362.00;;;-10.66;63.32
74893;BME280;63446;56.272;43.922;2022-12-08T04:44:01;102361.41;;;-10.71;63.32
74893;BME280;63446;56.272;43.922;2022-12-08T04:46:26;102350.53;;;-10.75;63.36
74893;BME280;63446;56.272;43.922;2022-12-08T04:48:52;102348.03;;;-10.76;63.29
74893;BME280;63446;56.272;43.922;2022-12-08T04:51:19;102355.81;;;-10.78;63.33
74893;BME280;63446;56.272;43.922;2022-12-08T04:53:45;102349.06;;;-10.79;63.25
74893;BME280;63446;56.272;43.922;2022-12-08T04:56:13;102357.69;;;-10.82;63.38
74893;BME280;63446;56.272;43.922;2022-12-08T04:58:40;102344.09;;;-10.82;63.37
74893;BME280;63446;56.272;43.922;2022-12-08T05:01:06;102347.72;;;-10.86;63.33
74893;BME280;63446;56.272;43.922;2022-12-08T05:03:32;102348.63;;;-10.87;63.31
74893;BME280;63446;56.272;43.922;2022-12-08T05:05:59;102341.78;;;-10.87;63.28
74893;BME280;63446;56.272;43.922;2022-12-08T05:08:25;102352.88;;;-10.88;63.32
74893;BME280;63446;56.272;43.922;2022-12-08T05:10:51;102346.28;;;-10.92;63.21
74893;BME280;63446;56.272;43.922;2022-12-08T05:13:17;102348.84;;;-10.92;63.20
74893;BME280;63446;56.272;43.922;2022-12-08T05:15:43;102345.63;;;-10.95;63.27
74893;BME280;63446;56.272;43.922;2022-12-08T05:18:09;102344.00;;;-10.96;63.27
74893;BME280;63446;56.272;43.922;2022-12-08T05:20:35;102332.13;;;-10.97;63.22
74893;BME280;63446;56.272;43.922;2022-12-08T05:23:02;102340.63;;;-10.97;63.30
74893;BME280;63446;56.272;43.922;2022-12-08T05:25:27;102349.09;;;-10.96;63.27
74893;BME280;63446;56.272;43.922;2022-12-08T05:27:53;102340.63;;;-10.97;63.22
74893;BME280;63446;56.272;43.922;2022-12-08T05:30:19;102331.38;;;-10.99;63.20
74893;BME280;63446;56.272;43.922;2022-12-08T05:32:45;102329.16;;;-11.05;63.15
74893;BME280;63446;56.272;43.922;2022-12-08T05:35:11;102336.72;;;-11.04;63.10
74893;BME280;63446;56.272;43.922;2022-12-08T05:37:37;102337.63;;;-11.05;63.12
74893;BME280;63446;56.272;43.922;2022-12-08T05:40:03;102327.44;;;-11.05;63.25
74893;BME280;63446;56.272;43.922;2022-12-08T05:42:29;102323.03;;;-11.03;63.12
74893;BME280;63446;56.272;43.922;2022-12-08T05:44:55;102334.94;;;-11.02;63.15
74893;BME280;63446;56.272;43.922;2022-12-08T05:47:21;102323.00;;;-11.01;63.09
74893;BME280;63446;56.272;43.922;2022-12-08T05:49:47;102316.06;;;-10.99;63.15
74893;BME280;63446;56.272;43.922;2022-12-08T05:52:12;102317.63;;;-10.97;63.15
74893;BME280;63446;56.272;43.922;2022-12-08T05:54:38;102328.66;;;-10.96;63.27
74893;BME280;63446;56.272;43.922;2022-12-08T05:57:04;102314.00;;;-10.93;63.07
74893;BME280;63446;56.272;43.922;2022-12-08T05:59:31;102315.59;;;-10.90;63.14
74893;BME280;63446;56.272;43.922;2022-12-08T06:01:57;102321.59;;;-10.91;63.01
74893;BME280;63446;56.272;43.922;2022-12-08T06:04:23;102318.72;;;-10.85;63.02
74893;BME280;63446;56.272;43.922;2022-12-08T06:06:49;102318.47;;;-10.80;62.84
74893;BME280;63446;56.272;43.922;2022-12-08T06:09:15;102329.44;;;-10.78;62.91
74893;BME280;63446;56.272;43.922;2022-12-08T06:11:42;102320.03;;;-10.78;62.81
74893;BME280;63446;56.272;43.922;2022-12-08T06:14:12;102316.50;;;-10.75;62.92
74893;BME280;63446;56.272;43.922;2022-12-08T06:16:37;102312.94;;;-10.73;62.88
74893;BME280;63446;56.272;43.922;2022-12-08T06:19:04;102310.31;;;-10.71;62.91
74893;BME280;63446;56.272;43.922;2022-12-08T06:21:30;102313.19;;;-10.62;62.82
74893;BME280;63446;56.272;43.922;2022-12-08T06:23:55;102317.06;;;-10.54;62.70
74893;BME280;63446;56.272;43.922;2022-12-08T06:26:21;102304.03;;;-10.50;62.87
74893;BME280;63446;56.272;43.922;2022-12-08T06:28:48;102313.28;;;-10.47;62.69
74893;BME280;63446;56.272;43.922;2022-12-08T06:31:20;102306.81;;;-10.39;62.54
74893;BME280;63446;56.272;43.922;2022-12-08T06:33:47;102315.09;;;-10.34;62.46
74893;BME280;63446;56.272;43.922;2022-12-08T06:36:16;102318.19;;;-10.28;62.45
74893;BME280;63446;56.272;43.922;2022-12-08T06:38:42;102311.97;;;-10.24;62.42
74893;BME280;63446;56.272;43.922;2022-12-08T06:41:09;102314.81;;;-10.15;62.25
74893;BME280;63446;56.272;43.922;2022-12-08T06:43:34;102306.00;;;-10.09;62.28
74893;BME280;63446;56.272;43.922;2022-12-08T06:46:01;102315.13;;;-10.05;62.36
74893;BME280;63446;56.272;43.922;2022-12-08T06:48:29;102317.38;;;-9.99;62.13
74893;BME280;63446;56.272;43.922;2022-12-08T06:50:54;102306.03;;;-9.95;62.19
74893;BME280;63446;56.272;43.922;2022-12-08T06:53:20;102306.50;;;-9.88;62.11
74893;BME280;63446;56.272;43.922;2022-12-08T06:55:51;102329.09;;;-9.80;62.21
74893;BME280;63446;56.272;43.922;2022-12-08T06:58:19;102299.84;;;-9.76;62.04
74893;BME280;63446;56.272;43.922;2022-12-08T07:00:44;102303.53;;;-9.66;62.13
74893;BME280;63446;56.272;43.922;2022-12-08T07:03:12;102310.03;;;-9.61;62.02
74893;BME280;63446;56.272;43.922;2022-12-08T07:05:38;102303.72;;;-9.55;61.82
74893;BME280;63446;56.272;43.922;2022-12-08T07:08:06;102293.03;;;-9.47;61.79
74893;BME280;63446;56.272;43.922;2022-12-08T07:10:33;102294.41;;;-9.42;61.85
74893;BME280;63446;56.272;43.922;2022-12-08T07:12:59;102306.56;;;-9.31;61.73
74893;BME280;63446;56.272;43.922;2022-12-08T07:15:25;102317.19;;;-9.23;61.70
74893;BME280;63446;56.272;43.922;2022-12-08T07:17:50;102299.63;;;-9.15;61.70
74893;BME280;63446;56.272;43.922;2022-12-08T07:20:16;102311.06;;;-9.06;61.47
74893;BME280;63446;56.272;43.922;2022-12-08T07:22:52;102305.38;;;-8.97;61.44
74893;BME280;63446;56.272;43.922;2022-12-08T07:25:21;102295.56;;;-8.90;61.39
74893;BME280;63446;56.272;43.922;2022-12-08T07:27:46;102293.53;;;-8.85;61.31
74893;BME280;63446;56.272;43.922;2022-12-08T07:30:13;102294.00;;;-8.78;61.25
74893;BME280;63446;56.272;43.922;2022-12-08T07:32:39;102303.03;;;-8.73;61.21
74893;BME280;63446;56.272;43.922;2022-12-08T07:35:06;102295.59;;;-8.63;61.12
74893;BME280;63446;56.272;43.922;2022-12-08T07:37:33;102288.44;;;-8.58;61.17
74893;BME280;63446;56.272;43.922;2022-12-08T07:40:00;102276.34;;;-8.56;60.93
74893;BME280;63446;56.272;43.922;2022-12-08T07:42:28;102271.84;;;-8.52;60.92
74893;BME280;63446;56.272;43.922;2022-12-08T07:44:54;102291.06;;;-8.45;60.84
74893;BME280;63446;56.272;43.922;2022-12-08T07:47:20;102275.38;;;-8.41;60.93
74893;BME280;63446;56.272;43.922;2022-12-08T07:49:46;102274.22;;;-8.37;60.70
74893;BME280;63446;56.272;43.922;2022-12-08T07:52:11;102273.94;;;-8.32;60.56
74893;BME280;63446;56.272;43.922;2022-12-08T07:54:38;102271.06;;;-8.27;60.54
74893;BME280;63446;56.272;43.922;2022-12-08T07:57:04;102260.72;;;-8.26;60.35
74893;BME280;63446;56.272;43.922;2022-12-08T07:59:31;102261.34;;;-8.22;60.55
74893;BME280;63446;56.272;43.922;2022-12-08T08:01:56;102260.31;;;-8.20;60.36
74893;BME280;63446;56.272;43.922;2022-12-08T08:04:23;102254.88;;;-8.15;60.30
74893;BME280;63446;56.272;43.922;2022-12-08T08:06:48;102254.69;;;-8.12;60.29
74893;BME280;63446;56.272;43.922;2022-12-08T08:09:15;102255.22;;;-8.07;60.24
74893;BME280;63446;56.272;43.922;2022-12-08T08:11:41;102258.28;;;-8.02;60.40
74893;BME280;63446;56.272;43.922;2022-12-08T08:14:07;102258.91;;;-7.98;60.24
74893;BME280;63446;56.272;43.922;2022-12-08T08:16:33;102267.84;;;-7.91;60.18
74893;BME280;63446;56.272;43.922;2022-12-08T08:18:59;102264.06;;;-7.86;60.09
74893;BME280;63446;56.272;43.922;2022-12-08T08:21:24;102256.03;;;-7.81;60.12
74893;BME280;63446;56.272;43.922;2022-12-08T08:23:54;102247.53;;;-7.81;59.99
74893;BME280;63446;56.272;43.922;2022-12-08T08:26:19;102260.78;;;-7.75;59.81
74893;BME280;63446;56.272;43.922;2022-12-08T08:28:45;102252.16;;;-7.74;59.91
74893;BME280;63446;56.272;43.922;2022-12-08T08:31:12;102252.75;;;-7.70;59.88
74893;BME280;63446;56.272;43.922;2022-12-08T08:33:39;102244.84;;;-7.67;59.93
74893;BME280;63446;56.272;43.922;2022-12-08T08:36:08;102237.66;;;-7.62;59.88
74893;BME280;63446;56.272;43.922;2022-12-08T08:38:36;102243.53;;;-7.60;59.86
74893;BME280;63446;56.272;43.922;2022-12-08T08:41:09;102239.09;;;-7.58;59.71
74893;BME280;63446;56.272;43.922;2022-12-08T08:43:37;102225.34;;;-7.57;59.66
74893;BME280;63446;56.272;43.922;2022-12-08T08:46:03;102239.00;;;-7.56;59.63
74893;BME280;63446;56.272;43.922;2022-12-08T08:48:30;102220.50;;;-7.62;59.51
74893;BME280;63446;56.272;43.922;2022-12-08T08:50:58;102218.25;;;-7.66;59.25
74893;BME280;63446;56.272;43.922;2022-12-08T08:53:30;102220.81;;;-7.66;59.41
74893;BME280;63446;56.272;43.922;2022-12-08T08:55:56;102225.66;;;-7.74;59.17
74893;BME280;63446;56.272;43.922;2022-12-08T08:58:23;102232.44;;;-7.73;59.31
74893;BME280;63446;56.272;43.922;2022-12-08T09:00:49;102222.28;;;-7.75;59.46
74893;BME280;63446;56.272;43.922;2022-12-08T09:03:15;102217.97;;;-7.74;59.52
74893;BME280;63446;56.272;43.922;2022-12-08T09:05:41;102236.66;;;-7.72;59.52
74893;BME280;63446;56.272;43.922;2022-12-08T09:08:07;102219.59;;;-7.73;59.47
74893;BME280;63446;56.272;43.922;2022-12-08T09:10:33;102206.06;;;-7.75;59.50
74893;BME280;63446;56.272;43.922;2022-12-08T09:12:59;102206.75;;;-7.73;59.40
74893;BME280;63446;56.272;43.922;2022-12-08T09:15:24;102225.03;;;-7.78;59.21
74893;BME280;63446;56.272;43.922;2022-12-08T09:17:53;102206.97;;;-7.76;59.36
74893;BME280;63446;56.272;43.922;2022-12-08T09:20:20;102220.72;;;-7.77;59.27
74893;BME280;63446;56.272;43.922;2022-12-08T09:22:46;102210.25;;;-7.74;59.45
74893;BME280;63446;56.272;43.922;2022-12-08T09:25:11;102195.59;;;-7.72;59.49
74893;BME280;63446;56.272;43.922;2022-12-08T09:27:39;102201.25;;;-7.80;59.25
74893;BME280;63446;56.272;43.922;2022-12-08T09:30:05;102220.41;;;-7.73;59.34
74893;BME280;63446;56.272;43.922;2022-12-08T09:32:31;102193.22;;;-7.75;59.23
74893;BME280;63446;56.272;43.922;2022-12-08T09:34:56;102193.22;;;-7.75;59.24
74893;BME280;63446;56.272;43.922;2022-12-08T09:37:24;102194.84;;;-7.74;59.27
74893;BME280;63446;56.272;43.922;2022-12-08T09:39:51;102188.91;;;-7.75;59.44
74893;BME280;63446;56.272;43.922;2022-12-08T09:42:29;102170.72;;;-7.72;59.42
74893;BME280;63446;56.272;43.922;2022-12-08T09:45:08;102171.53;;;-7.71;59.25
74893;BME280;63446;56.272;43.922;2022-12-08T09:47:42;102173.28;;;-7.72;59.43
74893;BME280;63446;56.272;43.922;2022-12-08T09:50:17;102169.38;;;-7.77;59.29
74893;BME280;63446;56.272;43.922;2022-12-08T09:53:08;102173.38;;;-7.73;59.47
74893;BME280;63446;56.272;43.922;2022-12-08T09:56:00;102164.16;;;-7.76;59.38
74893;BME280;63446;56.272;43.922;2022-12-08T09:58:55;102151.63;;;-7.80;59.30
74893;BME280;63446;56.272;43.922;2022-12-08T10:01:26;102150.09;;;-7.83;59.39
74893;BME280;63446;56.272;43.922;2022-12-08T10:03:53;102152.56;;;-7.81;59.50
74893;BME280;63446;56.272;43.922;2022-12-08T10:06:26;102147.63;;;-7.84;59.58
74893;BME280;63446;56.272;43.922;2022-12-08T10:11:34;102143.63;;;-7.89;59.58
74893;BME280;63446;56.272;43.922;2022-12-08T10:16:47;102127.44;;;-8.02;59.79
74893;BME280;63446;56.272;43.922;2022-12-08T10:19:21;102133.88;;;-7.96;59.80
74893;BME280;63446;56.272;43.922;2022-12-08T10:21:49;102147.84;;;-8.00;59.86
74893;BME280;63446;56.272;43.922;2022-12-08T10:24:22;102146.22;;;-8.01;59.97
74893;BME280;63446;56.272;43.922;2022-12-08T10:26:51;102129.88;;;-8.00;60.08
74893;BME280;63446;56.272;43.922;2022-12-08T10:29:20;102139.25;;;-7.99;60.17
74893;BME280;63446;56.272;43.922;2022-12-08T10:31:48;102132.13;;;-7.96;60.31
74893;BME280;63446;56.272;43.922;2022-12-08T10:34:17;102128.22;;;-7.89;60.28
74893;BME280;63446;56.272;43.922;2022-12-08T10:39:29;102127.19;;;-7.73;60.31
74893;BME280;63446;56.272;43.922;2022-12-08T10:47:37;102110.16;;;-7.50;60.32
74893;BME280;63446;56.272;43.922;2022-12-08T10:52:39;102093.31;;;-7.42;60.40
74893;BME280;63446;56.272;43.922;2022-12-08T10:55:15;102088.06;;;-7.40;60.36
74893;BME280;63446;56.272;43.922;2022-12-08T10:57:41;102089.34;;;-7.34;60.37
74893;BME280;63446;56.272;43.922;2022-12-08T11:00:11;102082.59;;;-7.35;60.37
74893;BME280;63446;56.272;43.922;2022-12-08T11:05:21;102046.53;;;-7.34;60.40
74893;BME280;63446;56.272;43.922;2022-12-08T11:07:53;102031.44;;;-7.39;60.52
74893;BME280;63446;56.272;43.922;2022-12-08T11:10:26;102023.84;;;-7.40;60.25
74893;BME280;63446;56.272;43.922;2022-12-08T11:12:53;102036.56;;;-7.39;60.51
74893;BME280;63446;56.272;43.922;2022-12-08T11:15:20;102048.00;;;-7.43;60.42
74893;BME280;63446;56.272;43.922;2022-12-08T11:17:59;102009.69;;;-7.46;60.39
74893;BME280;63446;56.272;43.922;2022-12-08T11:20:26;102003.38;;;-7.53;60.36
74893;BME280;63446;56.272;43.922;2022-12-08T11:22:54;101999.28;;;-7.55;60.40
74893;BME280;63446;56.272;43.922;2022-12-08T11:25:23;102011.19;;;-7.54;60.63
74893;BME280;63446;56.272;43.922;2022-12-08T11:27:52;102018.28;;;-7.58;60.72
74893;BME280;63446;56.272;43.922;2022-12-08T11:30:26;102034.63;;;-7.59;60.55
74893;BME280;63446;56.272;43.922;2022-12-08T11:32:57;102040.78;;;-7.62;60.65
74893;BME280;63446;56.272;43.922;2022-12-08T11:35:38;102052.59;;;-7.59;60.83
74893;BME280;63446;56.272;43.922;2022-12-08T11:38:11;102054.00;;;-7.55;60.88
74893;BME280;63446;56.272;43.922;2022-12-08T11:40:40;102041.78;;;-7.51;60.80
74893;BME280;63446;56.272;43.922;2022-12-08T11:46:08;102043.19;;;-7.47;60.98
74893;BME280;63446;56.272;43.922;2022-12-08T11:51:31;102022.44;;;-7.44;60.89
74893;BME280;63446;56.272;43.922;2022-12-08T11:57:03;102018.88;;;-7.54;60.80
74893;BME280;63446;56.272;43.922;2022-12-08T11:59:34;102008.28;;;-7.50;60.85
74893;BME280;63446;56.272;43.922;2022-12-08T12:02:03;102005.00;;;-7.52;60.91
74893;BME280;63446;56.272;43.922;2022-12-08T12:13:13;102000.47;;;-7.48;61.02
74893;BME280;63446;56.272;43.922;2022-12-08T12:18:45;101984.00;;;-7.46;61.20
74893;BME280;63446;56.272;43.922;2022-12-08T12:24:00;101990.84;;;-7.33;61.29
74893;BME280;63446;56.272;43.922;2022-12-08T12:26:31;101981.16;;;-7.30;61.31
74893;BME280;63446;56.272;43.922;2022-12-08T12:29:16;101975.69;;;-7.25;61.36
74893;BME280;63446;56.272;43.922;2022-12-08T12:31:50;101971.16;;;-7.22;61.40
74893;BME280;63446;56.272;43.922;2022-12-08T12:36:54;101961.81;;;-7.12;61.45
74893;BME280;63446;56.272;43.922;2022-12-08T12:39:29;101961.94;;;-7.13;61.47
74893;BME280;63446;56.272;43.922;2022-12-08T12:41:58;101961.22;;;-7.15;61.45
74893;BME280;63446;56.272;43.922;2022-12-08T12:44:44;101966.25;;;-7.14;61.51
74893;BME280;63446;56.272;43.922;2022-12-08T12:47:11;101978.88;;;-7.10;61.54
74893;BME280;63446;56.272;43.922;2022-12-08T13:02:44;101945.84;;;-6.93;61.75
74893;BME280;63446;56.272;43.922;2022-12-08T13:05:27;101944.91;;;-6.92;61.83
74893;BME280;63446;56.272;43.922;2022-12-08T13:13:27;101933.00;;;-6.81;61.88
74893;BME280;63446;56.272;43.922;2022-12-08T13:16:12;101917.22;;;-6.77;61.80
74893;BME280;63446;56.272;43.922;2022-12-08T13:18:49;101922.72;;;-6.70;61.83
74893;BME280;63446;56.272;43.922;2022-12-08T13:21:19;101920.59;;;-6.65;61.68
74893;BME280;63446;56.272;43.922;2022-12-08T13:29:32;101925.13;;;-6.46;61.84
74893;BME280;63446;56.272;43.922;2022-12-08T13:34:49;101939.75;;;-6.35;61.89
74893;BME280;63446;56.272;43.922;2022-12-08T13:37:34;101947.38;;;-6.34;61.84
74893;BME280;63446;56.272;43.922;2022-12-08T13:40:14;101949.34;;;-6.26;61.79
74893;BME280;63446;56.272;43.922;2022-12-08T13:42:52;101951.66;;;-6.23;61.92
74893;BME280;63446;56.272;43.922;2022-12-08T13:45:25;101954.69;;;-6.18;61.71
74893;BME280;63446;56.272;43.922;2022-12-08T13:48:14;101945.09;;;-6.16;61.84
74893;BME280;63446;56.272;43.922;2022-12-08T13:50:46;101941.47;;;-6.13;61.91
74893;BME280;63446;56.272;43.922;2022-12-08T13:53:22;101922.41;;;-6.11;61.84
74893;BME280;63446;56.272;43.922;2022-12-08T13:56:00;101922.13;;;-6.08;61.96
74893;BME280;63446;56.272;43.922;2022-12-08T13:58:32;101917.56;;;-6.04;61.85
74893;BME280;63446;56.272;43.922;2022-12-08T14:01:22;101921.66;;;-6.02;61.89
74893;BME280;63446;56.272;43.922;2022-12-08T14:03:54;101929.25;;;-6.00;62.05
74893;BME280;63446;56.272;43.922;2022-12-08T14:06:30;101923.06;;;-5.98;61.99
74893;BME280;63446;56.272;43.922;2022-12-08T14:08:59;101913.56;;;-5.97;61.84
74893;BME280;63446;56.272;43.922;2022-12-08T14:14:06;101929.00;;;-5.97;61.82
74893;BME280;63446;56.272;43.922;2022-12-08T14:16:43;101924.56;;;-5.95;61.80
74893;BME280;63446;56.272;43.922;2022-12-08T14:19:18;101922.09;;;-5.97;61.71
74893;BME280;63446;56.272;43.922;2022-12-08T14:21:46;101925.50;;;-5.96;61.82
74893;BME280;63446;56.272;43.922;2022-12-08T14:24:12;101926.19;;;-5.94;61.78
74893;BME280;63446;56.272;43.922;2022-12-08T14:26:38;101924.44;;;-5.94;61.88
74893;BME280;63446;56.272;43.922;2022-12-08T14:29:06;101937.19;;;-5.92;61.72
74893;BME280;63446;56.272;43.922;2022-12-08T14:31:34;101927.00;;;-5.94;61.77